Terminal Aerodrome Forecast
Issued by NWS

Home | Current Version | Previous Version | Text Only | Print | Product List | Glossary On
Versions: 1 2 3 4 5 6 7 8 9 10 11 12 13 14 15 16 17 18 19 20 21 22 23 24 25 26 27 28
000
FTAK31 PANC 212330
TAFAAQ
TAF
PAAQ 212330Z 2200/2224 00000KT P6SM FEW035 SCT050
     FM220200 19006KT P6SM VCSH FEW035 BKN050
     FM220700 VRB03KT P6SM BKN060=

USA.gov is the U.S. government's official web portal to all federal, state and local government web resources and services.